Terminal Aerodrome Forecast
Issued by NWS

Home | Current Version | Previous Version | Text Only | Print | Product List | Glossary On
Versions: 1 2 3 4 5 6 7 8 9 10 11 12 13 14 15 16 17 18 19 20 21 22 23
000
FTUS46 KMTR 300500
TAFSNS
TAF
KSNS 300520Z 3006/3106 31006KT P6SM SKC
     FM301100 VRB04KT 6SM BR BKN007
     FM301300 12004KT 1SM BR OVC002
      TEMPO 3013/3015 VRB03KT 1/4SM FG VV001
     FM301700 VRB03KT P6SM SKC
     FM301900 27006KT P6SM SKC
     FM302200 28017KT P6SM SKC=

USA.gov is the U.S. government's official web portal to all federal, state and local government web resources and services.